createdAt,value
2019-05-19T00:02:08.247Z,5.30
2019-05-19T00:04:34.264Z,6.17
2019-05-19T00:07:01.328Z,5.90
2019-05-19T00:09:27.356Z,5.97
2019-05-19T00:11:53.591Z,7.63
2019-05-19T00:14:19.668Z,7.53
2019-05-19T00:16:45.758Z,6.17
2019-05-19T00:19:25.739Z,6.63
2019-05-19T00:21:40.783Z,5.20
2019-05-19T00:24:06.853Z,6.37
2019-05-19T00:26:32.862Z,6.00
2019-05-19T00:28:58.932Z,5.20
2019-05-19T00:31:24.939Z,6.40
2019-05-19T00:33:50.983Z,4.87
2019-05-19T00:36:19.516Z,5.03
2019-05-19T00:38:44.952Z,4.87
2019-05-19T00:41:10.971Z,5.63
2019-05-19T00:43:37.029Z,7.30
2019-05-19T00:46:03.236Z,6.20
2019-05-19T00:48:29.289Z,6.10
2019-05-19T00:50:55.295Z,6.57
2019-05-19T00:53:21.504Z,5.60
2019-05-19T00:55:48.121Z,5.10
2019-05-19T00:58:14.387Z,6.10
2019-05-19T01:00:40.516Z,5.70
2019-05-19T01:03:06.565Z,7.10
2019-05-19T01:05:32.567Z,7.50
2019-05-19T01:07:58.607Z,7.67
2019-05-19T01:10:24.623Z,8.00
2019-05-19T01:12:50.672Z,7.57
2019-05-19T01:15:17.485Z,7.63
2019-05-19T01:17:43.537Z,6.90
2019-05-19T01:20:10.162Z,6.90
2019-05-19T01:22:36.252Z,7.37
2019-05-19T01:25:05.063Z,7.60
2019-05-19T01:27:31.115Z,8.40
2019-05-19T01:29:57.123Z,8.47
2019-05-19T01:32:23.279Z,6.90
2019-05-19T01:34:49.286Z,8.27
2019-05-19T01:37:15.300Z,7.83
2019-05-19T01:39:41.359Z,8.17
2019-05-19T01:42:07.368Z,8.73
2019-05-19T01:44:33.425Z,9.00
2019-05-19T01:46:59.430Z,8.43
2019-05-19T01:49:25.479Z,8.43
2019-05-19T01:51:51.503Z,9.07
2019-05-19T01:54:17.563Z,8.87
2019-05-19T01:56:43.568Z,8.83
2019-05-19T01:59:09.716Z,8.77
2019-05-19T02:01:35.756Z,10.17
2019-05-19T02:04:01.960Z,10.10
2019-05-19T02:06:27.979Z,9.93
2019-05-19T02:08:54.031Z,9.43
2019-05-19T02:11:20.038Z,9.77
2019-05-19T02:13:46.100Z,8.83
2019-05-19T02:16:12.106Z,10.70
2019-05-19T02:18:38.167Z,10.93
2019-05-19T02:21:04.603Z,13.07
2019-05-19T02:23:30.819Z,12.60
2019-05-19T02:25:56.840Z,12.27
2019-05-19T02:28:22.987Z,11.47
2019-05-19T02:30:49.156Z,12.00
2019-05-19T02:33:15.201Z,12.40
2019-05-19T02:35:41.217Z,11.77
2019-05-19T02:38:07.269Z,12.50
2019-05-19T02:40:36.959Z,13.00
